Spirit Of Norfolk — WDD4552 — position and weather

sailwx.info

Track history (hours):
 
Tides and Currents Weather Stations Pressure Air Temp Water Temp Dewpoint Dewpoint Depression Visibility Wind Speed Wind Dir Waves Ship Positions

Spirit Of Norfolk

Owner: Spirit Cruises LLC, Norfolk, VA. More information available from US FCC via Universal Licensing System and Coast Guard Vessel Documentation Center.

Last reported at 2017-Oct-22 23:00 UTC. Time now 2017-Oct-22 23:04 UTC.
Position N 36°57' W 076°20'.

Length 52 m; draft 2.1 m.

Type: Passenger vessel. MMSI: 367146190.

Date/timePositionNaut miles runAvg speedWind from/ knotsBaromVisibWave heightAir tempDewpointWater temp
2017-Oct-22 23:00N 36°57' W 076°20'4 8.7
2017-Oct-22 22:30N 36°52' W 076°20'2 4.5
2017-Oct-22 21:59N 36°51' W 076°18'0 0.0
2017-Oct-22 21:29N 36°51' W 076°18'0 0.0
2017-Oct-22 20:59N 36°51' W 076°18'0 0.0
2017-Oct-22 20:29N 36°51' W 076°18'0 0.0
2017-Oct-22 19:59N 36°51' W 076°18'0 0.0
2017-Oct-22 19:29N 36°51' W 076°18'0 0.0
2017-Oct-22 19:00N 36°51' W 076°18'3 6.3
2017-Oct-22 18:29N 36°53' W 076°20'4 9.0
2017-Oct-22 17:59N 36°58' W 076°20'4 7.9
2017-Oct-22 17:30N 36°54' W 076°20'4 7.4
2017-Oct-22 17:00N 36°51' W 076°18'0 0.0
2017-Oct-22 16:30N 36°51' W 076°18'0 0.0
2017-Oct-22 16:00N 36°51' W 076°18'0 0.0
2017-Oct-22 15:30N 36°51' W 076°18'0 0.0
2017-Oct-22 15:00N 36°51' W 076°18'0 0.0
2017-Oct-22 06:07N 36°51' W 076°18'0 0.1
2017-Oct-22 06:00N 36°51' W 076°18'1 1.6
2017-Oct-22 05:30N 36°50' W 076°18'2 3.8
2017-Oct-22 05:00N 36°48' W 076°18'2 3.5
2017-Oct-22 04:30N 36°50' W 076°18'1 1.9
2017-Oct-22 04:00N 36°51' W 076°18'0 0.0
2017-Oct-22 03:31N 36°51' W 076°18'0 0.0
2017-Oct-22 03:00N 36°51' W 076°18'0 0.0
2017-Oct-22 02:30N 36°51' W 076°18'0 0.0
2017-Oct-22 02:00N 36°51' W 076°18'2 4.9
2017-Oct-22 01:30N 36°52' W 076°20'4 6.7
2017-Oct-22 00:58N 36°56' W 076°20'4 7.6
2017-Oct-22 00:30N 36°52' W 076°20'3 5.1
2017-Oct-22 00:00N 36°51' W 076°18'0 0.0
2017-Oct-21 23:30N 36°51' W 076°18'0 0.0
2017-Oct-21 23:01N 36°51' W 076°18'0 0.0
2017-Oct-21 22:30N 36°51' W 076°18'0 0.0
2017-Oct-21 22:01N 36°51' W 076°18'3 5.4
2017-Oct-21 21:30N 36°53' W 076°20'4 8.6
2017-Oct-21 20:59N 36°57' W 076°20'4 9.4
2017-Oct-21 20:30N 36°53' W 076°20'3 5.4
2017-Oct-21 20:00N 36°51' W 076°18'0 0.0
2017-Oct-21 19:30N 36°51' W 076°18'0 0.0
2017-Oct-21 18:45N 36°51' W 076°18'4 1.7
2017-Oct-21 16:37N 36°54' W 076°20'1 8.6
2017-Oct-21 16:26N 36°52' W 076°20'2 5.4
2017-Oct-21 16:01N 36°51' W 076°18'0 0.0
2017-Oct-21 07:08N 36°51' W 076°18'0 0.7
2017-Oct-21 07:00N 36°51' W 076°18'1 3.0
2017-Oct-21 06:30N 36°52' W 076°19'2 4.0
2017-Oct-21 06:00N 36°50' W 076°18'0 0.7
2017-Oct-21 05:30N 36°50' W 076°18'1 2.1
2017-Oct-21 05:00N 36°51' W 076°18'0 0.0
2017-Oct-21 04:30N 36°51' W 076°18'0 0.0
2017-Oct-21 04:00N 36°51' W 076°18'0 0.0
2017-Oct-21 03:30N 36°51' W 076°18'0 0.0
2017-Oct-21 03:00N 36°51' W 076°18'0 0.0
2017-Oct-21 02:30N 36°51' W 076°18'0 0.0
2017-Oct-21 01:57N 36°51' W 076°18'0 0.0
2017-Oct-21 01:30N 36°51' W 076°18'3 6.8
2017-Oct-21 01:00N 36°53' W 076°20'3 7.0
2017-Oct-21 00:30N 36°57' W 076°20'5 9.1
2017-Oct-21 00:01N 36°52' W 076°20'2 4.9
2017-Oct-20 23:31N 36°51' W 076°18'0 0.0
2017-Oct-20 23:00N 36°51' W 076°18'0 0.0
2017-Oct-20 22:30N 36°51' W 076°18'0 0.0
2017-Oct-20 01:50N 36°51' W 076°18'0 0.0
2017-Oct-20 01:26N 36°51' W 076°18'0 0.0
2017-Oct-20 00:57N 36°51' W 076°18'0 0.0
2017-Oct-19 21:51N 36°51' W 076°18'0 0.0
2017-Oct-19 21:30N 36°51' W 076°18'0 0.0
2017-Oct-19 21:00N 36°51' W 076°18'0 0.0
2017-Oct-19 01:05N 36°51' W 076°18'0 0.2
2017-Oct-19 01:00N 36°51' W 076°18'7 8.5
2017-Oct-19 00:11N 36°57' W 076°20'1 3.0
2017-Oct-18 23:59N 36°57' W 076°20'4 7.8
2017-Oct-18 23:30N 36°53' W 076°20'3 6.3
2017-Oct-18 23:00N 36°51' W 076°18'0 0.0
2017-Oct-18 22:29N 36°51' W 076°18'0 0.0
2017-Oct-18 22:00N 36°51' W 076°18'0 0.0
2017-Oct-18 21:30N 36°51' W 076°18'0 0.0
2017-Oct-18 18:03N 36°51' W 076°18'0 0.5
2017-Oct-18 18:00N 36°51' W 076°18'4 7.4
2017-Oct-18 17:30N 36°54' W 076°20'4 7.5
2017-Oct-18 17:00N 36°58' W 076°20'5 9.2
2017-Oct-18 16:26N 36°52' W 076°20'0 0.0
2017-Oct-17 23:27N 36°52' W 076°20'  
2017-Oct-15 06:01N 36°51' W 076°18'0 0.6
2017-Oct-15 06:00N 36°51' W 076°18'1 1.3
2017-Oct-15 05:30N 36°51' W 076°18'2 3.4
2017-Oct-15 05:00N 36°49' W 076°17'0 0.4
2017-Oct-15 04:30N 36°50' W 076°18'1 2.0
2017-Oct-15 04:00N 36°51' W 076°18'0 0.0
2017-Oct-15 03:30N 36°51' W 076°18'0 0.0
2017-Oct-15 03:00N 36°51' W 076°18'0 0.0
2017-Oct-15 02:30N 36°51' W 076°18'0 0.0
2017-Oct-15 02:00N 36°51' W 076°18'2 3.8
2017-Oct-15 01:30N 36°52' W 076°19'5 8.1
2017-Oct-15 00:54N 36°57' W 076°20'4 8.7
2017-Oct-15 00:30N 36°53' W 076°20'3 6.6
2017-Oct-15 00:00N 36°51' W 076°18'2 0.9
2017-Oct-14 21:34N 36°52' W 076°20'0 7.1
2017-Oct-14 21:30N 36°52' W 076°20'2 4.5
2017-Oct-14 21:00N 36°55' W 076°20'2 4.1
2017-Oct-14 20:30N 36°53' W 076°20'3 5.4
2017-Oct-14 20:00N 36°51' W 076°18'0 0.0
2017-Oct-14 19:30N 36°51' W 076°18'0 0.0
2017-Oct-14 19:00N 36°51' W 076°18'0 0.0
2017-Oct-14 18:30N 36°51' W 076°18'0 0.0
2017-Oct-14 18:00N 36°51' W 076°18'5 8.8
2017-Oct-14 17:29N 36°55' W 076°20'2 4.3
2017-Oct-14 16:56N 36°57' W 076°20'4 8.0
2017-Oct-14 16:28N 36°53' W 076°20'3 7.1
2017-Oct-14 16:00N 36°51' W 076°18'0 0.0
2017-Oct-14 06:03N 36°51' W 076°18'0 0.0
2017-Oct-14 06:00N 36°51' W 076°18'1 2.9
2017-Oct-14 05:30N 36°52' W 076°19'4 6.7
2017-Oct-14 04:56N 36°55' W 076°20'3 6.6
2017-Oct-14 04:30N 36°52' W 076°20'2 5.0
2017-Oct-14 04:00N 36°51' W 076°18'0 0.0
2017-Oct-14 03:30N 36°51' W 076°18'0 0.0
2017-Oct-14 03:00N 36°51' W 076°18'0 0.0
2017-Oct-14 02:30N 36°51' W 076°18'0 0.0
2017-Oct-14 02:00N 36°51' W 076°18'0 0.1
2017-Oct-14 01:26N 36°51' W 076°18'3 1.7
2017-Oct-13 23:54N 36°53' W 076°20'3 5.7
2017-Oct-13 23:25N 36°51' W 076°18'0 0.0
2017-Oct-13 22:58N 36°51' W 076°18'0 0.0
2017-Oct-13 22:28N 36°51' W 076°18'0 0.0
2017-Oct-13 21:58N 36°51' W 076°18'0 0.0
2017-Oct-13 21:28N 36°51' W 076°18'0 0.0
2017-Oct-13 18:02N 36°51' W 076°18'0 0.2
2017-Oct-13 18:00N 36°51' W 076°18'4 7.1
2017-Oct-13 17:29N 36°54' W 076°20'3 6.0
2017-Oct-13 16:56N 36°57' W 076°20'3 7.4
2017-Oct-13 16:30N 36°54' W 076°20'4 7.6
2017-Oct-13 16:00N 36°51' W 076°18'0 0.1
2017-Oct-13 15:30N 36°51' W 076°18'0 0.0
2017-Oct-13 15:00N 36°51' W 076°18'0 0.0
2017-Oct-13 14:30N 36°51' W 076°18'0 0.0
2017-Oct-13 00:59N 36°51' W 076°18'2 5.0
2017-Oct-13 00:30N 36°52' W 076°20'4 8.1
2017-Oct-13 00:00N 36°56' W 076°20'2 4.8
2017-Oct-12 23:30N 36°54' W 076°20'  
Track history (hours):
 
Tides and Currents Weather Stations Pressure Air Temp Water Temp Dewpoint Dewpoint Depression Visibility Wind Speed Wind Dir Waves Ship Positions

Spirit Of Norfolk

Owner: Spirit Cruises LLC, Norfolk, VA. More information available from US FCC via Universal Licensing System and Coast Guard Vessel Documentation Center.

Last reported at 2017-Oct-22 23:00 UTC. Time now 2017-Oct-22 23:04 UTC.
Position N 36°57' W 076°20'.

Length 52 m; draft 2.1 m.

Type: Passenger vessel. MMSI: 367146190.

Date/timePositionNaut miles runAvg speedWind from/ knotsBaromVisibWave heightAir tempDewpointWater temp
2017-Oct-22 23:00N 36°57' W 076°20'4 8.7
2017-Oct-22 22:30N 36°52' W 076°20'2 4.5
2017-Oct-22 21:59N 36°51' W 076°18'0 0.0
2017-Oct-22 21:29N 36°51' W 076°18'0 0.0
2017-Oct-22 20:59N 36°51' W 076°18'0 0.0
2017-Oct-22 20:29N 36°51' W 076°18'0 0.0
2017-Oct-22 19:59N 36°51' W 076°18'0 0.0
2017-Oct-22 19:29N 36°51' W 076°18'0 0.0
2017-Oct-22 19:00N 36°51' W 076°18'3 6.3
2017-Oct-22 18:29N 36°53' W 076°20'4 9.0
2017-Oct-22 17:59N 36°58' W 076°20'4 7.9
2017-Oct-22 17:30N 36°54' W 076°20'4 7.4
2017-Oct-22 17:00N 36°51' W 076°18'0 0.0
2017-Oct-22 16:30N 36°51' W 076°18'0 0.0
2017-Oct-22 16:00N 36°51' W 076°18'0 0.0
2017-Oct-22 15:30N 36°51' W 076°18'0 0.0
2017-Oct-22 15:00N 36°51' W 076°18'0 0.0
2017-Oct-22 06:07N 36°51' W 076°18'0 0.1
2017-Oct-22 06:00N 36°51' W 076°18'1 1.6
2017-Oct-22 05:30N 36°50' W 076°18'2 3.8
2017-Oct-22 05:00N 36°48' W 076°18'2 3.5
2017-Oct-22 04:30N 36°50' W 076°18'1 1.9
2017-Oct-22 04:00N 36°51' W 076°18'0 0.0
2017-Oct-22 03:31N 36°51' W 076°18'0 0.0
2017-Oct-22 03:00N 36°51' W 076°18'0 0.0
2017-Oct-22 02:30N 36°51' W 076°18'0 0.0
2017-Oct-22 02:00N 36°51' W 076°18'2 4.9
2017-Oct-22 01:30N 36°52' W 076°20'4 6.7
2017-Oct-22 00:58N 36°56' W 076°20'4 7.6
2017-Oct-22 00:30N 36°52' W 076°20'3 5.1
2017-Oct-22 00:00N 36°51' W 076°18'0 0.0
2017-Oct-21 23:30N 36°51' W 076°18'0 0.0
2017-Oct-21 23:01N 36°51' W 076°18'0 0.0
2017-Oct-21 22:30N 36°51' W 076°18'0 0.0
2017-Oct-21 22:01N 36°51' W 076°18'3 5.4
2017-Oct-21 21:30N 36°53' W 076°20'4 8.6
2017-Oct-21 20:59N 36°57' W 076°20'4 9.4
2017-Oct-21 20:30N 36°53' W 076°20'3 5.4
2017-Oct-21 20:00N 36°51' W 076°18'0 0.0
2017-Oct-21 19:30N 36°51' W 076°18'0 0.0
2017-Oct-21 18:45N 36°51' W 076°18'4 1.7
2017-Oct-21 16:37N 36°54' W 076°20'1 8.6
2017-Oct-21 16:26N 36°52' W 076°20'2 5.4
2017-Oct-21 16:01N 36°51' W 076°18'0 0.0
2017-Oct-21 07:08N 36°51' W 076°18'0 0.7
2017-Oct-21 07:00N 36°51' W 076°18'1 3.0
2017-Oct-21 06:30N 36°52' W 076°19'2 4.0
2017-Oct-21 06:00N 36°50' W 076°18'0 0.7
2017-Oct-21 05:30N 36°50' W 076°18'1 2.1
2017-Oct-21 05:00N 36°51' W 076°18'0 0.0
2017-Oct-21 04:30N 36°51' W 076°18'0 0.0
2017-Oct-21 04:00N 36°51' W 076°18'0 0.0
2017-Oct-21 03:30N 36°51' W 076°18'0 0.0
2017-Oct-21 03:00N 36°51' W 076°18'0 0.0
2017-Oct-21 02:30N 36°51' W 076°18'0 0.0
2017-Oct-21 01:57N 36°51' W 076°18'0 0.0
2017-Oct-21 01:30N 36°51' W 076°18'3 6.8
2017-Oct-21 01:00N 36°53' W 076°20'3 7.0
2017-Oct-21 00:30N 36°57' W 076°20'5 9.1
2017-Oct-21 00:01N 36°52' W 076°20'2 4.9
2017-Oct-20 23:31N 36°51' W 076°18'0 0.0
2017-Oct-20 23:00N 36°51' W 076°18'0 0.0
2017-Oct-20 22:30N 36°51' W 076°18'0 0.0
2017-Oct-20 01:50N 36°51' W 076°18'0 0.0
2017-Oct-20 01:26N 36°51' W 076°18'0 0.0
2017-Oct-20 00:57N 36°51' W 076°18'0 0.0
2017-Oct-19 21:51N 36°51' W 076°18'0 0.0
2017-Oct-19 21:30N 36°51' W 076°18'0 0.0
2017-Oct-19 21:00N 36°51' W 076°18'0 0.0
2017-Oct-19 01:05N 36°51' W 076°18'0 0.2
2017-Oct-19 01:00N 36°51' W 076°18'7 8.5
2017-Oct-19 00:11N 36°57' W 076°20'1 3.0
2017-Oct-18 23:59N 36°57' W 076°20'4 7.8
2017-Oct-18 23:30N 36°53' W 076°20'3 6.3
2017-Oct-18 23:00N 36°51' W 076°18'0 0.0
2017-Oct-18 22:29N 36°51' W 076°18'0 0.0
2017-Oct-18 22:00N 36°51' W 076°18'0 0.0
2017-Oct-18 21:30N 36°51' W 076°18'0 0.0
2017-Oct-18 18:03N 36°51' W 076°18'0 0.5
2017-Oct-18 18:00N 36°51' W 076°18'4 7.4
2017-Oct-18 17:30N 36°54' W 076°20'4 7.5
2017-Oct-18 17:00N 36°58' W 076°20'5 9.2
2017-Oct-18 16:26N 36°52' W 076°20'0 0.0
2017-Oct-17 23:27N 36°52' W 076°20'  
2017-Oct-15 06:01N 36°51' W 076°18'0 0.6
2017-Oct-15 06:00N 36°51' W 076°18'1 1.3
2017-Oct-15 05:30N 36°51' W 076°18'2 3.4
2017-Oct-15 05:00N 36°49' W 076°17'0 0.4
2017-Oct-15 04:30N 36°50' W 076°18'1 2.0
2017-Oct-15 04:00N 36°51' W 076°18'0 0.0
2017-Oct-15 03:30N 36°51' W 076°18'0 0.0
2017-Oct-15 03:00N 36°51' W 076°18'0 0.0
2017-Oct-15 02:30N 36°51' W 076°18'0 0.0
2017-Oct-15 02:00N 36°51' W 076°18'2 3.8
2017-Oct-15 01:30N 36°52' W 076°19'5 8.1
2017-Oct-15 00:54N 36°57' W 076°20'4 8.7
2017-Oct-15 00:30N 36°53' W 076°20'3 6.6
2017-Oct-15 00:00N 36°51' W 076°18'2 0.9
2017-Oct-14 21:34N 36°52' W 076°20'0 7.1
2017-Oct-14 21:30N 36°52' W 076°20'2 4.5
2017-Oct-14 21:00N 36°55' W 076°20'2 4.1
2017-Oct-14 20:30N 36°53' W 076°20'3 5.4
2017-Oct-14 20:00N 36°51' W 076°18'0 0.0
2017-Oct-14 19:30N 36°51' W 076°18'0 0.0
2017-Oct-14 19:00N 36°51' W 076°18'0 0.0
2017-Oct-14 18:30N 36°51' W 076°18'0 0.0
2017-Oct-14 18:00N 36°51' W 076°18'5 8.8
2017-Oct-14 17:29N 36°55' W 076°20'2 4.3
2017-Oct-14 16:56N 36°57' W 076°20'4 8.0
2017-Oct-14 16:28N 36°53' W 076°20'3 7.1
2017-Oct-14 16:00N 36°51' W 076°18'0 0.0
2017-Oct-14 06:03N 36°51' W 076°18'0 0.0
2017-Oct-14 06:00N 36°51' W 076°18'1 2.9
2017-Oct-14 05:30N 36°52' W 076°19'4 6.7
2017-Oct-14 04:56N 36°55' W 076°20'3 6.6
2017-Oct-14 04:30N 36°52' W 076°20'2 5.0
2017-Oct-14 04:00N 36°51' W 076°18'0 0.0
2017-Oct-14 03:30N 36°51' W 076°18'0 0.0
2017-Oct-14 03:00N 36°51' W 076°18'0 0.0
2017-Oct-14 02:30N 36°51' W 076°18'0 0.0
2017-Oct-14 02:00N 36°51' W 076°18'0 0.1
2017-Oct-14 01:26N 36°51' W 076°18'3 1.7
2017-Oct-13 23:54N 36°53' W 076°20'3 5.7
2017-Oct-13 23:25N 36°51' W 076°18'0 0.0
2017-Oct-13 22:58N 36°51' W 076°18'0 0.0
2017-Oct-13 22:28N 36°51' W 076°18'0 0.0
2017-Oct-13 21:58N 36°51' W 076°18'0 0.0
2017-Oct-13 21:28N 36°51' W 076°18'0 0.0
2017-Oct-13 18:02N 36°51' W 076°18'0 0.2
2017-Oct-13 18:00N 36°51' W 076°18'4 7.1
2017-Oct-13 17:29N 36°54' W 076°20'3 6.0
2017-Oct-13 16:56N 36°57' W 076°20'3 7.4
2017-Oct-13 16:30N 36°54' W 076°20'4 7.6
2017-Oct-13 16:00N 36°51' W 076°18'0 0.1
2017-Oct-13 15:30N 36°51' W 076°18'0 0.0
2017-Oct-13 15:00N 36°51' W 076°18'0 0.0
2017-Oct-13 14:30N 36°51' W 076°18'0 0.0
2017-Oct-13 00:59N 36°51' W 076°18'2 5.0
2017-Oct-13 00:30N 36°52' W 076°20'4 8.1
2017-Oct-13 00:00N 36°56' W 076°20'2 4.8
2017-Oct-12 23:30N 36°54' W 076°20'  

Dump ship's entire track history